Drogenbos, Belgium
Current Conditions -  °F | °C
As of 1:20 AM on Tuesday 25 Nov 2014 (Local Time) from EBBR Reporting Station
Clear Clear  
Wind Chill: 37°   Ceiling: Unl
Heat Index: 37°   Visibility: 6mi
Dew Point: 34°   Wind: 3mph
Humidity: 87%   Direction: 120°ESE
Pressure: 30.3"   Gusts: NA
Location:  50.79°N, 4.31°E
Report Text: EBBR 250020Z 12003KT CAVOK 03/01 Q1026 NOSIG
Loading
Personal Weather Stations






























Interactive Weather Map New forecast layout! Learn more

10-Day Weather Forecast

Advertisements
Track Severe Weather on mobile